createdAt,value
2022-08-17T00:00:42.716Z,25.70
2022-08-17T00:03:10.218Z,25.70
2022-08-17T00:05:52.388Z,25.70
2022-08-17T00:08:27.918Z,25.70
2022-08-17T00:10:56.544Z,25.50
2022-08-17T00:13:29.653Z,25.30
2022-08-17T00:16:01.370Z,25.20
2022-08-17T00:18:57.427Z,25.10
2022-08-17T00:21:24.000Z,24.90
2022-08-17T00:23:54.964Z,25.00
2022-08-17T00:26:34.583Z,25.00
2022-08-17T00:29:19.731Z,25.10
2022-08-17T00:31:48.575Z,25.20
2022-08-17T00:34:16.502Z,25.10
2022-08-17T00:36:44.306Z,25.10
2022-08-17T00:39:12.032Z,25.00
2022-08-17T00:41:42.535Z,25.00
2022-08-17T00:44:12.488Z,25.00
2022-08-17T00:46:42.492Z,25.10
2022-08-17T00:49:12.984Z,25.10
2022-08-17T00:51:52.897Z,25.10
2022-08-17T00:54:28.791Z,25.00
2022-08-17T00:57:04.385Z,25.00
2022-08-17T00:59:55.956Z,25.00
2022-08-17T01:02:43.354Z,25.10
2022-08-17T01:05:18.544Z,25.00
2022-08-17T01:07:48.321Z,24.90
2022-08-17T01:10:58.995Z,24.80
2022-08-17T01:13:07.140Z,24.70
2022-08-17T01:15:46.212Z,24.70
2022-08-17T01:18:14.831Z,24.70
2022-08-17T01:20:48.925Z,24.70
2022-08-17T01:23:20.759Z,24.60
2022-08-17T01:25:52.408Z,24.60
2022-08-17T01:28:33.578Z,24.70
2022-08-17T01:31:09.693Z,24.70
2022-08-17T01:33:37.925Z,24.50
2022-08-17T01:36:07.705Z,24.40
2022-08-17T01:38:37.417Z,24.40
2022-08-17T01:41:12.646Z,24.40
2022-08-17T01:43:47.040Z,24.30
2022-08-17T01:46:21.086Z,24.30
2022-08-17T01:48:48.821Z,24.40
2022-08-17T01:51:16.766Z,24.40
2022-08-17T01:53:50.616Z,24.40
2022-08-17T01:56:21.451Z,24.50
2022-08-17T01:58:49.377Z,24.60
2022-08-17T02:01:20.985Z,24.50
2022-08-17T02:03:59.226Z,24.30
2022-08-17T02:06:43.947Z,24.10
2022-08-17T02:09:17.005Z,24.00
2022-08-17T02:11:46.284Z,24.00
2022-08-17T02:14:14.648Z,23.80
2022-08-17T02:16:42.950Z,23.90
2022-08-17T02:19:16.001Z,23.90
2022-08-17T02:21:47.211Z,23.90
2022-08-17T02:24:59.385Z,24.00
2022-08-17T02:27:19.863Z,24.00
2022-08-17T02:29:47.546Z,24.00
2022-08-17T02:32:28.071Z,24.00
2022-08-17T02:34:58.139Z,24.00
2022-08-17T02:37:27.442Z,23.90
2022-08-17T02:39:57.294Z,24.10
2022-08-17T02:42:39.061Z,24.10
2022-08-17T02:45:11.392Z,24.20
2022-08-17T02:47:40.495Z,24.20
2022-08-17T02:50:10.763Z,24.20
2022-08-17T02:52:42.848Z,23.80
2022-08-17T02:55:22.031Z,23.90
2022-08-17T02:57:50.946Z,23.60
2022-08-17T03:00:34.210Z,23.60
2022-08-17T03:03:04.854Z,23.60
2022-08-17T03:05:35.178Z,23.70
2022-08-17T03:08:03.731Z,23.70
2022-08-17T03:10:32.071Z,23.70
2022-08-17T03:12:59.978Z,23.70
2022-08-17T03:15:31.597Z,23.80
2022-08-17T03:18:00.672Z,23.70
2022-08-17T03:20:31.232Z,23.50
2022-08-17T03:23:01.968Z,23.50
2022-08-17T03:25:37.318Z,23.70
2022-08-17T03:28:06.735Z,23.60
2022-08-17T03:30:35.347Z,23.50
2022-08-17T03:33:05.333Z,23.50
2022-08-17T03:35:35.086Z,23.70
2022-08-17T03:38:03.937Z,23.60
2022-08-17T03:40:55.811Z,23.50
2022-08-17T03:43:21.278Z,23.30
2022-08-17T03:46:11.025Z,23.40
2022-08-17T03:49:15.084Z,23.30
2022-08-17T03:52:01.380Z,23.30
2022-08-17T03:54:47.531Z,23.30
2022-08-17T03:57:15.550Z,23.20
2022-08-17T03:59:43.345Z,23.30
2022-08-17T04:02:25.744Z,23.10
2022-08-17T04:04:54.371Z,23.10
2022-08-17T04:07:24.238Z,23.20
2022-08-17T04:09:52.052Z,23.20
2022-08-17T04:12:22.017Z,23.00
2022-08-17T04:14:53.740Z,23.00
2022-08-17T04:17:24.854Z,22.80
2022-08-17T04:19:52.769Z,22.90
2022-08-17T04:22:30.626Z,22.90
2022-08-17T04:25:00.024Z,23.00
2022-08-17T04:27:27.868Z,23.00
2022-08-17T04:29:56.242Z,23.00
2022-08-17T04:33:04.429Z,23.10
2022-08-17T04:35:12.092Z,23.10
2022-08-17T04:37:39.795Z,23.10
2022-08-17T04:40:27.533Z,23.00
2022-08-17T04:43:04.469Z,23.00
2022-08-17T04:45:32.687Z,22.90
2022-08-17T04:48:01.834Z,22.90
2022-08-17T04:50:29.550Z,23.00
2022-08-17T04:52:57.515Z,23.00
2022-08-17T04:55:25.497Z,23.20
2022-08-17T04:57:53.195Z,23.30
2022-08-17T05:00:21.486Z,23.30
2022-08-17T05:02:51.105Z,23.10
2022-08-17T05:05:26.368Z,23.30
2022-08-17T05:07:55.870Z,23.30
2022-08-17T05:10:25.741Z,23.20
2022-08-17T05:13:06.753Z,23.20
2022-08-17T05:15:37.017Z,23.20
2022-08-17T05:18:06.223Z,23.30
2022-08-17T05:20:36.029Z,23.30
2022-08-17T05:23:08.469Z,23.40
2022-08-17T05:25:40.932Z,23.50
2022-08-17T05:28:11.011Z,23.60
2022-08-17T05:30:40.892Z,23.70
2022-08-17T05:33:16.892Z,23.80
2022-08-17T05:35:47.980Z,23.90
2022-08-17T05:38:17.540Z,24.00
2022-08-17T05:40:45.511Z,24.10
2022-08-17T05:43:19.659Z,24.10
2022-08-17T05:45:55.301Z,24.20
2022-08-17T05:48:39.746Z,24.40
2022-08-17T05:51:26.109Z,24.50
2022-08-17T05:54:28.139Z,24.50
2022-08-17T05:57:22.380Z,24.60
2022-08-17T06:00:07.619Z,24.70
2022-08-17T06:02:51.752Z,24.90
2022-08-17T06:05:57.076Z,25.00
2022-08-17T06:08:51.496Z,25.10
2022-08-17T06:11:47.208Z,25.20
2022-08-17T06:14:45.062Z,25.30
2022-08-17T06:17:18.804Z,25.50
2022-08-17T06:19:54.677Z,25.50
2022-08-17T06:22:26.298Z,25.70
2022-08-17T06:24:57.037Z,25.80
2022-08-17T06:28:04.877Z,25.90
2022-08-17T06:30:59.195Z,25.80
2022-08-17T06:33:35.536Z,25.90
2022-08-17T06:36:40.449Z,25.90
2022-08-17T06:39:11.639Z,26.00
2022-08-17T06:42:04.321Z,26.00
2022-08-17T06:44:49.732Z,26.10
2022-08-17T06:47:51.052Z,26.20
2022-08-17T06:50:21.330Z,26.40
2022-08-17T06:53:12.463Z,26.50
2022-08-17T06:56:02.208Z,26.60
2022-08-17T06:58:32.532Z,26.50
2022-08-17T07:01:14.224Z,26.60
2022-08-17T07:03:46.617Z,26.60
2022-08-17T07:06:21.130Z,26.70
2022-08-17T07:09:10.133Z,26.70
2022-08-17T07:11:53.359Z,26.80
2022-08-17T07:14:36.760Z,27.00
2022-08-17T07:17:14.209Z,27.10
2022-08-17T07:19:45.581Z,27.20
2022-08-17T07:22:18.799Z,27.30
2022-08-17T07:25:00.915Z,27.30
2022-08-17T07:27:51.362Z,27.40
2022-08-17T07:30:24.563Z,27.50
2022-08-17T07:33:00.192Z,27.60
2022-08-17T07:35:31.366Z,27.80
2022-08-17T07:38:24.973Z,27.80
2022-08-17T07:40:58.132Z,27.70
2022-08-17T07:43:29.656Z,27.80
2022-08-17T07:46:25.457Z,27.90
2022-08-17T07:48:55.471Z,28.00
2022-08-17T07:51:33.970Z,28.00
2022-08-17T07:54:14.520Z,28.10
2022-08-17T07:56:57.746Z,28.10
2022-08-17T07:59:33.444Z,28.20
2022-08-17T08:02:17.170Z,28.10
2022-08-17T08:05:01.190Z,28.00
2022-08-17T08:07:34.853Z,27.80
2022-08-17T08:10:14.161Z,27.80
2022-08-17T08:12:48.234Z,27.90
2022-08-17T08:15:33.306Z,27.90
2022-08-17T08:18:03.946Z,28.20
2022-08-17T08:20:53.442Z,28.30
2022-08-17T08:23:37.156Z,28.40
2022-08-17T08:26:34.039Z,28.50
2022-08-17T08:29:28.415Z,28.50
2022-08-17T08:32:07.725Z,28.50
2022-08-17T08:34:53.158Z,28.50
2022-08-17T08:38:13.532Z,28.50
2022-08-17T08:40:41.111Z,28.60
2022-08-17T08:43:43.884Z,28.60
2022-08-17T08:46:40.793Z,28.80
2022-08-17T08:50:01.385Z,28.80
2022-08-17T08:52:38.209Z,28.90
2022-08-17T08:55:34.663Z,29.00
2022-08-17T08:58:31.415Z,29.10
2022-08-17T09:01:17.132Z,29.10
2022-08-17T09:04:21.524Z,29.10
2022-08-17T09:07:31.086Z,29.10
2022-08-17T09:10:17.212Z,29.20
2022-08-17T09:13:26.688Z,29.30
2022-08-17T09:16:01.258Z,29.50
2022-08-17T09:19:00.743Z,29.60
2022-08-17T09:21:56.887Z,29.80
2022-08-17T09:24:57.398Z,29.70
2022-08-17T09:27:38.589Z,29.80
2022-08-17T09:30:11.154Z,30.00
2022-08-17T09:32:42.429Z,30.10
2022-08-17T09:35:15.320Z,30.10
2022-08-17T09:38:06.179Z,30.10
2022-08-17T09:40:52.965Z,30.20
2022-08-17T09:43:32.587Z,30.10
2022-08-17T09:46:25.131Z,30.20
2022-08-17T09:49:28.530Z,30.30
2022-08-17T09:52:03.681Z,30.30
2022-08-17T09:54:39.241Z,30.30
2022-08-17T09:57:51.901Z,30.40
2022-08-17T10:00:28.825Z,30.50
2022-08-17T10:03:26.092Z,30.60
2022-08-17T10:06:02.851Z,30.70
2022-08-17T10:08:55.361Z,30.80
2022-08-17T10:11:52.281Z,31.00
2022-08-17T10:14:44.208Z,30.90
2022-08-17T10:17:15.514Z,30.70
2022-08-17T10:19:56.033Z,30.70
2022-08-17T10:22:54.856Z,30.80
2022-08-17T10:25:54.581Z,30.90
2022-08-17T10:28:36.925Z,31.00
2022-08-17T10:34:30.570Z,31.10
2022-08-17T10:37:44.275Z,31.10
2022-08-17T10:40:26.530Z,31.30
2022-08-17T10:43:18.754Z,31.30
2022-08-17T10:46:10.531Z,31.50
2022-08-17T10:48:45.669Z,31.40
2022-08-17T10:51:41.011Z,31.50
2022-08-17T10:54:37.477Z,31.30
2022-08-17T10:57:28.197Z,31.40
2022-08-17T10:59:57.421Z,31.40
2022-08-17T11:02:50.180Z,31.60
2022-08-17T11:05:52.367Z,31.60
2022-08-17T11:08:57.166Z,31.30
2022-08-17T11:11:58.871Z,31.20
2022-08-17T11:14:44.956Z,31.30
2022-08-17T11:17:45.964Z,31.40
2022-08-17T11:20:38.216Z,31.50
2022-08-17T11:23:34.926Z,31.60
2022-08-17T11:26:08.376Z,31.50
2022-08-17T11:28:48.873Z,31.60
2022-08-17T11:31:38.417Z,31.60
2022-08-17T11:34:26.670Z,31.60
2022-08-17T11:37:01.919Z,31.80
2022-08-17T11:39:39.796Z,32.00
2022-08-17T11:42:26.595Z,32.00
2022-08-17T11:45:07.558Z,31.90
2022-08-17T11:48:27.291Z,31.70
2022-08-17T11:51:24.897Z,31.80
2022-08-17T11:54:14.639Z,32.00
2022-08-17T11:56:52.036Z,32.20
2022-08-17T11:59:36.511Z,32.20
2022-08-17T12:02:34.722Z,32.30
2022-08-17T12:05:13.515Z,32.20
2022-08-17T12:07:52.304Z,32.20
2022-08-17T12:10:31.750Z,32.40
2022-08-17T12:13:06.845Z,32.20
2022-08-17T12:15:48.863Z,32.20
2022-08-17T12:18:39.790Z,32.30
2022-08-17T12:21:37.790Z,32.30
2022-08-17T12:24:31.619Z,32.60
2022-08-17T12:27:01.747Z,32.60
2022-08-17T12:29:38.364Z,32.80
2022-08-17T12:32:13.190Z,32.80
2022-08-17T12:34:42.856Z,32.90
2022-08-17T12:37:23.338Z,33.00
2022-08-17T12:39:58.627Z,33.20
2022-08-17T12:42:33.288Z,33.10
2022-08-17T12:45:01.375Z,33.00
2022-08-17T12:47:30.500Z,33.00
2022-08-17T12:50:28.539Z,32.60
2022-08-17T12:53:01.954Z,32.60
2022-08-17T12:55:37.282Z,32.60
2022-08-17T12:58:08.941Z,32.50
2022-08-17T13:00:47.382Z,32.60
2022-08-17T13:03:19.516Z,32.60
2022-08-17T13:05:59.448Z,32.70
2022-08-17T13:08:50.369Z,32.50
2022-08-17T13:11:24.376Z,32.50
2022-08-17T13:13:56.210Z,32.20
2022-08-17T13:16:30.945Z,32.30
2022-08-17T13:19:15.289Z,32.40
2022-08-17T13:21:55.985Z,32.50
2022-08-17T13:24:29.663Z,32.70
2022-08-17T13:27:11.934Z,33.00
2022-08-17T13:29:45.391Z,33.20
2022-08-17T13:32:44.006Z,33.60
2022-08-17T13:35:32.954Z,33.80
2022-08-17T13:38:49.666Z,33.80
2022-08-17T13:41:38.411Z,33.60
2022-08-17T13:44:39.627Z,34.00
2022-08-17T13:47:18.374Z,33.70
2022-08-17T13:49:49.231Z,33.70
2022-08-17T13:52:40.930Z,33.80
2022-08-17T13:55:18.877Z,33.60
2022-08-17T13:57:49.769Z,33.20
2022-08-17T14:00:36.498Z,33.10
2022-08-17T14:03:05.774Z,33.10
2022-08-17T14:05:38.136Z,33.00
2022-08-17T14:08:06.878Z,33.00
2022-08-17T14:10:36.610Z,33.00
2022-08-17T14:13:06.583Z,32.80
2022-08-17T14:15:55.857Z,32.80
2022-08-17T14:18:50.530Z,32.90
2022-08-17T14:21:10.763Z,32.70
2022-08-17T14:23:38.774Z,32.70
2022-08-17T14:26:06.632Z,32.70
2022-08-17T14:28:36.544Z,32.80
2022-08-17T14:31:06.408Z,32.70
2022-08-17T14:33:35.072Z,32.50
2022-08-17T14:36:02.983Z,32.40
2022-08-17T14:38:30.734Z,32.40
2022-08-17T14:40:58.475Z,32.30
2022-08-17T14:43:27.182Z,32.20
2022-08-17T14:45:54.879Z,32.10
2022-08-17T14:48:22.667Z,32.00
2022-08-17T14:50:50.468Z,31.90
2022-08-17T14:53:20.425Z,31.90
2022-08-17T14:55:51.477Z,31.90
2022-08-17T14:58:19.594Z,31.90
2022-08-17T15:00:51.076Z,32.10
2022-08-17T15:03:19.009Z,32.40
2022-08-17T15:05:46.981Z,32.50
2022-08-17T15:08:16.779Z,32.60
2022-08-17T15:10:45.019Z,32.50
2022-08-17T15:13:21.163Z,32.80
2022-08-17T15:15:49.565Z,32.70
2022-08-17T15:18:17.962Z,32.70
2022-08-17T15:20:47.607Z,32.70
2022-08-17T15:23:18.912Z,32.50
2022-08-17T15:25:48.604Z,32.40
2022-08-17T15:28:16.739Z,32.50
2022-08-17T15:30:45.179Z,32.70
2022-08-17T15:33:19.809Z,32.90
2022-08-17T15:35:51.829Z,32.80
2022-08-17T15:38:19.733Z,32.70
2022-08-17T15:40:49.382Z,32.80
2022-08-17T15:43:27.946Z,32.60
2022-08-17T15:46:00.637Z,32.40
2022-08-17T15:48:41.632Z,32.30
2022-08-17T15:51:11.057Z,32.20
2022-08-17T15:53:39.976Z,32.10
2022-08-17T15:56:08.330Z,32.00
2022-08-17T15:58:38.092Z,32.00
2022-08-17T16:01:18.199Z,32.00
2022-08-17T16:04:04.336Z,31.90
2022-08-17T16:06:33.029Z,31.80
2022-08-17T16:09:00.891Z,31.70
2022-08-17T16:11:28.595Z,31.70
2022-08-17T16:13:56.325Z,31.60
2022-08-17T16:16:24.405Z,31.50
2022-08-17T16:18:53.569Z,31.40
2022-08-17T16:21:27.210Z,31.40
2022-08-17T16:24:01.441Z,31.30
2022-08-17T16:26:30.962Z,31.20
2022-08-17T16:29:00.743Z,31.10
2022-08-17T16:31:30.444Z,31.10
2022-08-17T16:34:16.327Z,31.10
2022-08-17T16:36:55.332Z,31.10
2022-08-17T16:39:29.285Z,31.10
2022-08-17T16:41:57.917Z,31.10
2022-08-17T16:44:30.600Z,31.10
2022-08-17T16:47:01.383Z,31.00
2022-08-17T16:49:36.605Z,31.00
2022-08-17T16:52:12.765Z,30.90
2022-08-17T16:54:44.318Z,30.80
2022-08-17T16:57:13.928Z,31.00
2022-08-17T16:59:43.937Z,31.00
2022-08-17T17:02:16.569Z,30.90
2022-08-17T17:05:00.202Z,30.80
2022-08-17T17:07:46.158Z,30.80
2022-08-17T17:10:17.896Z,30.70
2022-08-17T17:13:03.268Z,30.50
2022-08-17T17:15:45.411Z,30.30
2022-08-17T17:18:15.803Z,30.30
2022-08-17T17:20:54.846Z,30.20
2022-08-17T17:23:36.727Z,30.00
2022-08-17T17:26:23.916Z,29.70
2022-08-17T17:29:47.438Z,29.60
2022-08-17T17:32:39.010Z,29.40
2022-08-17T17:35:19.102Z,29.20
2022-08-17T17:37:47.804Z,29.20
2022-08-17T17:40:32.061Z,29.20
2022-08-17T17:43:20.388Z,29.20
2022-08-17T17:46:26.713Z,29.20
2022-08-17T17:48:51.837Z,29.10
2022-08-17T17:52:05.296Z,29.10
2022-08-17T17:54:47.541Z,28.50
2022-08-17T17:57:45.405Z,27.40
2022-08-17T18:00:13.507Z,26.70
2022-08-17T18:03:15.667Z,26.10
2022-08-17T18:05:56.577Z,25.60
2022-08-17T18:08:38.863Z,24.90
2022-08-17T18:11:37.229Z,24.50
2022-08-17T18:14:17.420Z,24.10
2022-08-17T18:16:46.564Z,23.80
2022-08-17T18:19:20.139Z,23.40
2022-08-17T18:22:13.084Z,23.30
2022-08-17T18:24:45.591Z,23.10
2022-08-17T18:27:23.602Z,23.30
2022-08-17T18:29:54.751Z,23.20
2022-08-17T18:32:28.618Z,23.30
2022-08-17T18:35:10.548Z,23.40
2022-08-17T18:37:53.740Z,23.40
2022-08-17T18:40:27.036Z,23.50
2022-08-17T18:43:00.813Z,23.50
2022-08-17T18:45:34.361Z,23.70
2022-08-17T18:48:02.649Z,23.70
2022-08-17T18:50:43.769Z,23.70
2022-08-17T18:53:39.351Z,23.60
2022-08-17T18:56:16.197Z,23.90
2022-08-17T18:58:52.071Z,24.10
2022-08-17T19:01:22.211Z,24.00
2022-08-17T19:04:26.479Z,24.10
2022-08-17T19:07:10.993Z,24.30
2022-08-17T19:09:50.686Z,24.50
2022-08-17T19:12:51.934Z,24.60
2022-08-17T19:15:33.186Z,24.60
2022-08-17T19:18:16.497Z,24.70
2022-08-17T19:20:55.704Z,24.70
2022-08-17T19:23:53.916Z,24.40
2022-08-17T19:26:53.662Z,24.50
2022-08-17T19:29:22.240Z,24.50
2022-08-17T19:31:50.665Z,24.50
2022-08-17T19:34:30.061Z,24.60
2022-08-17T19:37:29.767Z,24.50
2022-08-17T19:40:06.765Z,24.50
2022-08-17T19:42:49.902Z,24.50
2022-08-17T19:45:39.682Z,24.50
2022-08-17T19:48:13.642Z,24.50
2022-08-17T19:50:45.987Z,24.30
2022-08-17T19:54:03.769Z,24.20
2022-08-17T19:56:50.118Z,24.30
2022-08-17T19:59:26.840Z,24.20
2022-08-17T20:02:01.201Z,24.20
2022-08-17T20:04:31.958Z,24.00
2022-08-17T20:07:07.098Z,24.00
2022-08-17T20:09:40.254Z,23.90
2022-08-17T20:12:24.163Z,24.00
2022-08-17T20:15:22.123Z,23.90
2022-08-17T20:17:51.057Z,23.90
2022-08-17T20:20:47.430Z,24.00
2022-08-17T20:23:45.516Z,23.90
2022-08-17T20:26:21.846Z,24.00
2022-08-17T20:29:19.186Z,23.90
2022-08-17T20:32:14.358Z,23.70
2022-08-17T20:34:47.001Z,23.60
2022-08-17T20:37:14.936Z,23.70
2022-08-17T20:40:09.478Z,23.90
2022-08-17T20:42:37.698Z,23.90
2022-08-17T20:45:42.468Z,23.90
2022-08-17T20:48:36.846Z,23.70
2022-08-17T20:51:40.144Z,23.50
2022-08-17T20:54:28.850Z,23.50
2022-08-17T20:57:01.043Z,23.70
2022-08-17T20:59:30.837Z,23.80
2022-08-17T21:02:17.504Z,23.80
2022-08-17T21:04:54.622Z,23.80
2022-08-17T21:07:42.849Z,23.70
2022-08-17T21:10:21.694Z,23.80
2022-08-17T21:13:15.298Z,23.60
2022-08-17T21:16:03.013Z,23.60
2022-08-17T21:18:39.442Z,23.70
2022-08-17T21:21:31.611Z,23.80
2022-08-17T21:24:36.626Z,23.80
2022-08-17T21:27:23.756Z,23.90
2022-08-17T21:30:44.619Z,23.70
2022-08-17T21:33:34.369Z,23.60
2022-08-17T21:36:15.302Z,23.50
2022-08-17T21:38:56.998Z,23.70
2022-08-17T21:41:26.575Z,23.50
2022-08-17T21:44:31.278Z,23.30
2022-08-17T21:47:13.252Z,23.30
2022-08-17T21:49:41.054Z,23.30
2022-08-17T21:52:14.656Z,23.30
2022-08-17T21:57:35.236Z,23.40
2022-08-17T22:00:16.418Z,23.60
2022-08-17T22:02:55.859Z,23.60
2022-08-17T22:05:39.791Z,23.70
2022-08-17T22:08:16.496Z,23.60
2022-08-17T22:10:48.599Z,23.70
2022-08-17T22:13:29.401Z,23.70
2022-08-17T22:16:29.084Z,23.60
2022-08-17T22:18:59.499Z,23.50
2022-08-17T22:21:28.042Z,23.40
2022-08-17T22:24:06.540Z,23.50
2022-08-17T22:27:06.076Z,23.60
2022-08-17T22:29:57.042Z,23.30
2022-08-17T22:32:46.130Z,23.20
2022-08-17T22:36:08.107Z,23.30
2022-08-17T22:38:36.589Z,23.40
2022-08-17T22:41:24.740Z,23.50
2022-08-17T22:43:53.956Z,23.50
2022-08-17T22:46:24.151Z,23.40
2022-08-17T22:48:56.989Z,23.40
2022-08-17T22:51:29.043Z,23.40
2022-08-17T22:54:19.942Z,23.60
2022-08-17T22:57:18.938Z,23.70
2022-08-17T22:59:56.040Z,23.50
2022-08-17T23:02:36.133Z,23.60
2022-08-17T23:05:22.069Z,23.50
2022-08-17T23:07:54.009Z,23.40
2022-08-17T23:10:22.141Z,23.40
2022-08-17T23:12:50.150Z,23.40
2022-08-17T23:15:19.466Z,23.60
2022-08-17T23:17:47.915Z,23.80
2022-08-17T23:20:17.681Z,23.70
2022-08-17T23:22:51.308Z,23.70
2022-08-17T23:25:32.598Z,23.70
2022-08-17T23:28:04.828Z,23.50
2022-08-17T23:30:37.718Z,23.50
2022-08-17T23:33:08.913Z,23.50
2022-08-17T23:35:39.666Z,23.30
2022-08-17T23:38:13.342Z,23.20
2022-08-17T23:40:41.275Z,23.20
2022-08-17T23:43:24.584Z,23.00
2022-08-17T23:45:55.134Z,23.30
2022-08-17T23:48:35.877Z,23.20
2022-08-17T23:51:15.704Z,23.10
2022-08-17T23:53:51.545Z,22.90
2022-08-17T23:56:25.282Z,22.80
2022-08-17T23:58:56.003Z,22.70
